Hlavní strana
METAR-TAF:

METAR-TAF

Letiště :

Nashville, Tennessee, Spojené státy americké

zeměpisná šířka: 36-07-08N, zeměpisná délka: 086-41-21W, výška: 182 m

Aktuální stav počasí

Zpráva byla vytvořena před 55 minutami, v 10:53 UTC
Bezvětří
Teplota -1°C
Vlhkost vzduchu 74%
Tlak 1029 hPa
Viditelnost: 16.1 km
Jasno

METAR: KBNA 071053Z 00000KT 10SM CLR M01/M05 A3038 RMK AO2 SLP290 T10061050 $

Čas: 05:48 (11:48 UTC)

Předpověď počasí

Zpráva byla vytvořena před 28 minutami, v 11:20 UTC
Předpověď platná od 07 v 12 UTC do 08 v 12 UTC
Severní vítr kt
Viditelnost: 10 km
Jasno
Od 07 v 1800 UTC
Severní vítr 6 kt
Viditelnost: 10 km
Jasno
Od 07 v 2300 UTC
Severoseverovýchodní vítr 3 kt
Viditelnost: 10 km
Jasno

TAF: KBNA 071120Z 0712/0812 00000KT P6SM SKC FM071800 35006KT P6SM SKC FM072300 02003KT P6SM SKC

Stav a předpovědi počasí z více než 4 000 letišť (zprávy METAR a TAF).

Červené a žluté tečky na mapě představují dostupné meteorologické stanice.

Když kurzor umístíte na tečku, zobrazí se název stanice.

Pak kliknutím zobrazíte stav a předpověď počasí.

Chcete-li změnit mapu, kliknutím na zelené tlačítko se znaménkem +mapu přiblížíte, kliknutím na zelené tlačítko se znaménkem – mapu oddálíte a kliknutím na zelené šipky přejdete na sousední mapy.


METAR-TAF: